To NAV CANADA Home Page Login to a new session Search on AWWS site Feedback and Comments Disclaimer Vers la page française équivalente Tips FAQ What's new on the site To the Forecasts and Observations / NOTAM section To "File a Flight Plan" website Publications and other links Update of the User's profile FIC Telephone Numbers My Weather Data Folder Route Weather Data Regional Weather Data Local Weather Data To the Forecasts and Observations / NOTAM section
Request Generated 04/18/2014 at 08:02:58 UTC . Weather information available at that time is displayed.

METAR/TAF

KITCHENER/WATERLOO/ON    (show WxCam)

METAR CYKF 180700Z AUTO 16005KT 9SM BKN200 03/M01 A3026 RMK SLP255=
METAR CYKF 180600Z AUTO 14007KT 9SM CLR 03/M01 A3028 RMK SLP261=
METAR CYKF 180500Z AUTO 15007KT 9SM FEW090 03/M02 A3030 RMK SLP270=

*** REMARK        : Forecast period has ended; this was the last TAF issued
*** REMARQUE : La période de prévision est échue; ceci était le dernier TAF qui a été émis
TAF CYKF 180138Z 1802/1804 09008KT P6SM SCT100 BKN240
RMK FCST BASED ON AUTO OBS. NXT FCST WILL BE ISSUED AT 180945Z=
Your time UTC time
Weather data provided by Environment Canada and NAV CANADA